createdAt,value
2018-01-18T00:02:54.754Z,78.40
2018-01-18T00:05:49.973Z,76.10
2018-01-18T00:11:30.916Z,79.50
2018-01-18T00:17:10.628Z,76.20
2018-01-18T00:19:39.839Z,77.80
2018-01-18T00:22:09.066Z,76.80
2018-01-18T00:24:35.712Z,77.50
2018-01-18T00:27:04.778Z,75.70
2018-01-18T00:29:36.459Z,75.40
2018-01-18T00:32:18.980Z,74.90
2018-01-18T00:34:49.970Z,75.00
2018-01-18T00:37:16.350Z,75.80
2018-01-18T00:39:43.083Z,76.40
2018-01-18T00:42:22.894Z,74.40
2018-01-18T00:44:50.092Z,74.10
2018-01-18T00:47:23.622Z,75.80
2018-01-18T00:49:50.801Z,74.70
2018-01-18T00:52:20.274Z,75.10
2018-01-18T00:54:49.199Z,74.00
2018-01-18T00:57:20.656Z,75.30
2018-01-18T00:59:50.347Z,75.10
2018-01-18T01:02:17.627Z,73.90
2018-01-18T01:04:44.126Z,73.60
2018-01-18T01:07:10.427Z,75.30
2018-01-18T01:09:36.828Z,75.20
2018-01-18T01:12:18.693Z,76.20
2018-01-18T01:14:46.151Z,74.20
2018-01-18T01:17:12.338Z,73.80
2018-01-18T01:19:39.802Z,74.80
2018-01-18T01:22:17.117Z,74.70
2018-01-18T01:28:26.213Z,75.20
2018-01-18T01:30:53.974Z,74.20
2018-01-18T01:33:21.333Z,74.30
2018-01-18T01:35:48.536Z,74.00
2018-01-18T01:38:21.967Z,74.00
2018-01-18T01:40:48.330Z,74.60
2018-01-18T01:43:14.630Z,74.60
2018-01-18T01:45:50.870Z,74.00
2018-01-18T01:48:30.842Z,73.60
2018-01-18T01:50:58.642Z,73.80
2018-01-18T01:53:41.430Z,72.90
2018-01-18T01:56:08.051Z,73.00
2018-01-18T01:58:36.672Z,71.80
2018-01-18T02:01:09.935Z,72.30
2018-01-18T02:03:46.715Z,73.00
2018-01-18T02:06:15.032Z,73.70
2018-01-18T02:08:57.335Z,74.00
2018-01-18T02:14:11.914Z,74.10
2018-01-18T02:16:41.579Z,74.90
2018-01-18T02:19:15.319Z,75.70
2018-01-18T02:21:45.070Z,74.80
2018-01-18T02:24:22.928Z,74.50
2018-01-18T02:29:55.090Z,75.10
2018-01-18T02:32:22.293Z,75.00
2018-01-18T02:34:48.644Z,75.10
2018-01-18T02:37:16.936Z,76.10
2018-01-18T02:39:50.193Z,76.30
2018-01-18T02:42:16.745Z,75.90
2018-01-18T02:44:50.127Z,77.70
2018-01-18T02:47:17.708Z,79.10
2018-01-18T02:49:47.544Z,78.30
2018-01-18T02:52:14.672Z,78.80
2018-01-18T02:54:41.018Z,79.70
2018-01-18T02:57:07.746Z,79.30
2018-01-18T02:59:38.227Z,80.30
2018-01-18T03:02:04.639Z,80.90
2018-01-18T03:04:34.927Z,80.80
2018-01-18T03:07:01.600Z,80.60
2018-01-18T03:09:38.722Z,83.50
2018-01-18T03:12:27.460Z,85.10
2018-01-18T03:18:04.770Z,85.40
2018-01-18T03:20:31.593Z,85.60
2018-01-18T03:23:06.077Z,87.20
2018-01-18T03:25:33.746Z,87.90
2018-01-18T03:28:00.287Z,89.70
2018-01-18T03:30:26.947Z,88.90
2018-01-18T03:32:53.499Z,88.90
2018-01-18T03:38:51.217Z,89.80
2018-01-18T03:41:17.792Z,91.00
2018-01-18T03:43:44.104Z,91.50
2018-01-18T03:46:21.265Z,91.50
2018-01-18T03:48:49.889Z,91.60
2018-01-18T03:51:20.840Z,91.90
2018-01-18T03:53:47.262Z,91.90
2018-01-18T03:56:14.002Z,92.50
2018-01-18T04:08:12.556Z,93.20
2018-01-18T04:10:44.060Z,93.10
2018-01-18T04:13:12.491Z,92.70
2018-01-18T04:16:00.128Z,93.00
2018-01-18T04:18:29.767Z,93.30
2018-01-18T04:20:56.305Z,93.20
2018-01-18T04:23:23.001Z,93.60
2018-01-18T04:28:30.504Z,93.70
2018-01-18T04:31:06.142Z,93.60
2018-01-18T04:36:30.117Z,93.60
2018-01-18T04:39:08.383Z,93.70
2018-01-18T04:41:40.706Z,93.60
2018-01-18T08:21:28.118Z,95.70
2018-01-18T08:24:14.312Z,95.60
2018-01-18T08:29:44.990Z,95.40
2018-01-18T08:35:18.710Z,95.10
2018-01-18T08:38:01.047Z,94.90
2018-01-18T08:40:28.372Z,94.80
2018-01-18T08:42:55.116Z,94.60
2018-01-18T08:45:21.890Z,94.50
2018-01-18T08:47:49.128Z,94.50
2018-01-18T08:50:28.812Z,94.30
2018-01-18T08:56:05.512Z,95.10
2018-01-18T08:58:31.757Z,94.70
2018-01-18T09:01:01.925Z,94.60
2018-01-18T09:06:37.674Z,94.10
2018-01-18T09:09:26.764Z,94.00
2018-01-18T09:11:53.199Z,93.60
2018-01-18T09:17:21.779Z,93.30
2018-01-18T09:19:48.439Z,93.40
2018-01-18T09:22:17.111Z,93.80
2018-01-18T09:24:56.678Z,93.50
2018-01-18T09:27:26.818Z,93.10
2018-01-18T09:29:59.260Z,93.00
2018-01-18T09:39:08.028Z,80.10
2018-01-18T09:41:42.130Z,68.00
2018-01-18T09:44:20.994Z,63.50
2018-01-18T09:46:56.704Z,61.20
2018-01-18T10:20:24.384Z,42.70
2018-01-18T10:22:51.625Z,44.80
2018-01-18T10:34:38.859Z,41.80
2018-01-18T10:37:05.288Z,45.30
2018-01-18T10:39:38.566Z,43.60
2018-01-18T10:42:04.935Z,43.60
2018-01-18T10:44:31.759Z,44.00
2018-01-18T10:46:58.138Z,44.40
2018-01-18T10:52:18.817Z,43.80
2018-01-18T10:55:04.243Z,44.40
2018-01-18T10:57:50.351Z,45.70
2018-01-18T11:00:22.901Z,46.40
2018-01-18T11:09:19.693Z,48.60
2018-01-18T11:11:52.003Z,46.60
2018-01-18T11:17:32.225Z,49.40
2018-01-18T11:20:00.525Z,50.20
2018-01-18T11:22:28.395Z,49.70
2018-01-18T11:25:03.215Z,51.50
2018-01-18T11:30:40.695Z,54.30
2018-01-18T11:33:08.090Z,53.00
2018-01-18T11:41:39.692Z,55.60
2018-01-18T11:47:19.958Z,56.40
2018-01-18T11:56:03.066Z,57.50
2018-01-18T11:58:29.605Z,57.80
2018-01-18T12:00:58.167Z,58.50
2018-01-18T12:03:37.411Z,56.40
2018-01-18T12:06:11.307Z,59.70
2018-01-18T12:11:49.309Z,62.10
2018-01-18T12:17:40.682Z,66.70
2018-01-18T12:26:22.755Z,67.90
2018-01-18T12:38:20.567Z,68.30
2018-01-18T12:40:48.126Z,69.00
2018-01-18T12:43:17.937Z,72.30
2018-01-18T12:45:59.647Z,72.30
2018-01-18T12:48:36.611Z,69.50
2018-01-18T12:54:13.280Z,70.50
2018-01-18T12:56:41.671Z,66.90
2018-01-18T13:05:27.681Z,73.30
2018-01-18T13:29:24.626Z,90.30
2018-01-18T13:31:51.115Z,91.00
2018-01-18T13:34:42.704Z,91.60
2018-01-18T13:37:19.318Z,91.50
2018-01-18T13:39:45.660Z,91.50
2018-01-18T13:42:11.943Z,92.10
2018-01-18T13:47:44.463Z,92.10
2018-01-18T13:50:21.931Z,92.10
2018-01-18T13:55:56.881Z,92.60
2018-01-18T14:01:24.670Z,92.10
2018-01-18T14:04:15.854Z,92.00
2018-01-18T14:09:52.353Z,91.90
2018-01-18T14:18:42.451Z,90.20
2018-01-18T14:21:14.954Z,90.40
2018-01-18T14:27:20.394Z,91.30
2018-01-18T14:29:53.021Z,91.90
2018-01-18T14:32:19.754Z,91.60
2018-01-18T14:34:50.408Z,91.70
2018-01-18T14:49:33.141Z,90.40
2018-01-18T14:58:13.424Z,90.10
2018-01-18T15:00:42.791Z,90.60
2018-01-18T15:03:13.301Z,90.90
2018-01-18T15:05:41.496Z,91.30
2018-01-18T15:11:24.237Z,91.60
2018-01-18T15:13:50.707Z,91.90
2018-01-18T15:16:18.728Z,92.20
2018-01-18T15:21:35.951Z,92.40
2018-01-18T15:24:02.458Z,92.60
2018-01-18T15:35:30.791Z,92.10
2018-01-18T15:44:16.426Z,92.00
2018-01-18T15:46:48.315Z,93.00
2018-01-18T15:52:19.704Z,93.60
2018-01-18T15:54:50.635Z,93.50
2018-01-18T15:57:28.551Z,93.40
2018-01-18T15:59:55.769Z,93.70
2018-01-18T16:05:40.140Z,93.60
2018-01-18T16:10:50.459Z,93.40
2018-01-18T16:13:22.341Z,93.50
2018-01-18T16:15:48.886Z,93.60
2018-01-18T16:18:17.250Z,93.30
2018-01-18T16:20:43.714Z,93.40
2018-01-18T19:30:48.425Z,91.80
2018-01-18T19:39:16.546Z,92.00
2018-01-18T19:49:35.387Z,91.90
2018-01-18T19:52:01.634Z,91.90
2018-01-18T19:57:20.499Z,91.90
2018-01-18T19:59:47.131Z,91.50
2018-01-18T20:08:40.179Z,91.60
2018-01-18T20:11:07.549Z,91.80
2018-01-18T20:16:46.740Z,91.50
2018-01-18T20:19:20.637Z,91.50
2018-01-18T20:21:52.254Z,91.70
2018-01-18T20:24:30.754Z,91.80
2018-01-18T20:26:57.211Z,91.70
2018-01-18T20:29:41.506Z,91.50
2018-01-18T20:32:14.947Z,91.40
2018-01-18T20:35:21.815Z,91.60
2018-01-18T20:37:48.329Z,91.70
2018-01-18T20:40:16.256Z,91.10
2018-01-18T20:42:51.169Z,91.70
2018-01-18T20:45:21.030Z,91.90
2018-01-18T20:50:52.352Z,91.70
2018-01-18T20:56:10.781Z,91.80
2018-01-18T20:58:50.260Z,91.80
2018-01-18T21:01:25.118Z,92.00
2018-01-18T21:04:17.003Z,92.00
2018-01-18T21:16:01.188Z,92.10
2018-01-18T21:18:37.762Z,92.10
2018-01-18T21:27:27.722Z,92.30
2018-01-18T21:29:54.028Z,92.40
2018-01-18T21:32:20.332Z,92.10
2018-01-18T21:34:47.429Z,92.10
2018-01-18T21:37:17.593Z,92.10
2018-01-18T21:39:44.293Z,92.40
2018-01-18T21:45:20.662Z,92.20
2018-01-18T21:47:50.643Z,91.90
2018-01-18T21:50:17.322Z,92.50
2018-01-18T21:55:25.794Z,92.30
2018-01-18T21:57:57.733Z,92.10
2018-01-18T22:00:24.283Z,92.30
2018-01-18T22:06:01.030Z,92.40
2018-01-18T22:08:32.040Z,92.60
2018-01-18T22:10:58.439Z,92.20
2018-01-18T22:13:24.775Z,92.40
2018-01-18T22:19:09.644Z,92.40
2018-01-18T22:21:50.961Z,92.40
2018-01-18T22:34:08.044Z,92.50
2018-01-18T22:39:21.256Z,92.40
2018-01-18T22:41:47.746Z,92.50
2018-01-18T22:44:14.347Z,92.30
2018-01-18T22:46:40.998Z,92.20
2018-01-18T22:49:08.948Z,92.60
2018-01-18T22:51:38.590Z,92.60
2018-01-18T22:54:05.230Z,92.90
2018-01-18T22:56:32.392Z,92.60
2018-01-18T22:59:03.754Z,92.50
2018-01-18T23:01:32.353Z,92.60
2018-01-18T23:07:11.222Z,92.40
2018-01-18T23:09:37.749Z,92.50
2018-01-18T23:12:04.751Z,92.40
2018-01-18T23:14:43.867Z,92.40
2018-01-18T23:17:11.133Z,92.60
2018-01-18T23:19:37.539Z,92.50
2018-01-18T23:28:22.432Z,92.30
2018-01-18T23:30:49.123Z,92.10
2018-01-18T23:33:19.368Z,91.90
2018-01-18T23:38:58.551Z,92.10
2018-01-18T23:41:27.198Z,92.20
2018-01-18T23:47:12.436Z,92.10
2018-01-18T23:49:51.725Z,91.80
2018-01-18T23:52:18.195Z,91.80
2018-01-18T23:54:45.365Z,92.00
2018-01-18T23:57:13.369Z,92.10
2018-01-18T23:59:41.258Z,92.00
